Time;durP1;ratioP1;P1;durP2;ratioP2;P2;SDS_P1;SDS_P2;PMS_P1;PMS_P2;Temp;Humidity;BMP_temperature;BMP_pressure;BME280_temperature;BME280_humidity;BME280_pressure;Samples;Min_cycle;Max_cycle;Signal;HPM_P1;HPM_P2
2022/02/25 00:01:35;;;;;;;1999.90;999.90;;;;;;;0.25;56.30;100771.16;5019732;27;97471;-72
2022/02/25 00:04:04;;;;;;;1999.90;999.90;;;;;;;0.20;56.85;100773.44;5019721;27;97622;-74
2022/02/25 00:06:31;;;;;;;1999.90;999.90;;;;;;;0.17;56.37;100779.34;5021295;28;97631;-72
2022/02/25 00:08:59;;;;;;;1999.90;999.90;;;;;;;0.18;56.43;100781.19;5020188;28;97670;-70
2022/02/25 00:11:27;;;;;;;1999.90;999.90;;;;;;;0.18;56.39;100796.88;5019479;27;99313;-70
2022/02/25 00:13:54;;;;;;;1999.90;999.90;;;;;;;0.42;53.97;100791.38;5013229;28;97398;-71
2022/02/25 00:16:24;;;;;;;1999.90;999.90;;;;;;;0.23;54.81;100791.91;5019612;27;97064;-70
2022/02/25 00:18:51;;;;;;;1999.90;999.90;;;;;;;0.50;53.95;100806.78;5016554;28;98919;-70
2022/02/25 00:21:19;;;;;;;1999.90;999.90;;;;;;;0.33;54.58;100806.53;5022724;28;99626;-72
2022/02/25 00:23:47;;;;;;;1999.90;999.90;;;;;;;0.32;55.40;100805.59;5024979;27;97213;-71
2022/02/25 00:26:15;;;;;;;1999.90;999.90;;;;;;;0.28;55.14;100811.47;5022176;28;97939;-71
2022/02/25 00:28:42;;;;;;;1999.90;999.90;;;;;;;0.19;55.25;100821.34;5007141;28;100324;-73
2022/02/25 00:31:10;;;;;;;1999.90;999.90;;;;;;;0.12;54.87;100821.75;5021508;28;97882;-71
2022/02/25 00:33:39;;;;;;;1999.90;999.90;;;;;;;0.06;55.46;100835.34;5020526;27;98351;-71
2022/02/25 00:36:07;;;;;;;1999.90;999.90;;;;;;;-0.01;55.55;100835.75;5025225;27;97714;-71
2022/02/25 00:38:34;;;;;;;1999.90;999.90;;;;;;;-0.05;55.39;100828.53;5024116;27;99168;-72
2022/02/25 00:41:02;;;;;;;1999.90;999.90;;;;;;;-0.04;55.75;100834.66;5024989;28;96932;-71
2022/02/25 00:43:30;;;;;;;1999.90;999.90;;;;;;;-0.07;55.85;100845.84;5023933;27;98754;-71
2022/02/25 00:45:58;;;;;;;1999.90;999.90;;;;;;;0.16;53.63;100852.53;5036975;27;98896;-70
2022/02/25 00:48:26;;;;;;;1999.90;999.90;;;;;;;-0.02;54.76;100854.88;5023380;28;99577;-74
2022/02/25 00:50:55;;;;;;;1999.90;999.90;;;;;;;-0.06;55.75;100860.72;5018337;28;98996;-71
2022/02/25 00:53:22;;;;;;;1999.90;999.90;;;;;;;-0.08;55.49;100864.94;5026348;28;99273;-70
2022/02/25 00:55:50;;;;;;;1999.90;999.90;;;;;;;-0.10;55.39;100878.75;5023015;27;97385;-73
2022/02/25 00:58:19;;;;;;;1999.90;999.90;;;;;;;-0.14;55.54;100868.88;5022283;27;98745;-74
2022/02/25 01:00:47;;;;;;;1999.90;999.90;;;;;;;-0.17;55.53;100880.03;4983115;27;1131291;-74
2022/02/25 01:03:15;;;;;;;1999.90;999.90;;;;;;;-0.22;55.61;100881.44;5024162;28;96843;-72
2022/02/25 01:05:43;;;;;;;1999.90;999.90;;;;;;;-0.20;55.72;100877.22;5022805;27;96897;-73
2022/02/25 01:08:12;;;;;;;1999.90;999.90;;;;;;;-0.23;55.41;100884.84;5023087;28;98670;-69
2022/02/25 01:10:39;;;;;;;1999.90;999.90;;;;;;;-0.03;53.88;100889.66;5024009;28;96785;-72
2022/02/25 01:13:07;;;;;;;1999.90;999.90;;;;;;;-0.22;54.97;100886.69;5019597;28;98011;-75
2022/02/25 01:15:36;;;;;;;1999.90;999.90;;;;;;;0.00;53.64;100889.91;5022129;28;97611;-71
2022/02/25 01:18:06;;;;;;;1999.90;999.90;;;;;;;-0.14;54.78;100900.25;5024184;27;99399;-70
2022/02/25 01:20:37;;;;;;;1999.90;999.90;;;;;;;-0.18;55.10;100896.53;5021258;28;98652;-73
2022/02/25 01:23:07;;;;;;;1999.90;999.90;;;;;;;-0.23;55.38;100897.03;5022845;28;98069;-71
2022/02/25 01:25:36;;;;;;;1999.90;999.90;;;;;;;-0.28;55.42;100912.41;5025220;28;97216;-74
2022/02/25 01:28:04;;;;;;;1999.90;999.90;;;;;;;-0.31;55.49;100909.59;5026280;27;97725;-70
2022/02/25 01:30:32;;;;;;;1999.90;999.90;;;;;;;-0.34;55.51;100912.03;5023090;28;97049;-71
2022/02/25 01:33:00;;;;;;;1999.90;999.90;;;;;;;-0.37;55.19;100916.13;5022714;27;97184;-69
2022/02/25 01:35:28;;;;;;;1999.90;999.90;;;;;;;-0.41;54.85;100917.63;5042418;27;100143;-71
2022/02/25 01:37:56;;;;;;;1999.90;999.90;;;;;;;-0.41;54.83;100917.63;5023514;27;100941;-70
2022/02/25 01:40:23;;;;;;;1999.90;999.90;;;;;;;-0.43;55.15;100918.34;5024007;28;97594;-72
2022/02/25 01:42:54;;;;;;;1999.90;999.90;;;;;;;-0.48;54.57;100928.47;5022079;27;97232;-71
2022/02/25 01:45:22;;;;;;;1999.90;999.90;;;;;;;-0.45;54.85;100933.03;5023607;28;96962;-73
2022/02/25 01:47:50;;;;;;;1999.90;999.90;;;;;;;-0.49;54.72;100931.91;5019680;28;99763;-74
2022/02/25 01:50:17;;;;;;;1999.90;999.90;;;;;;;-0.48;54.40;100925.00;5018995;28;97963;-75
2022/02/25 01:52:52;;;;;;;1999.90;999.90;;;;;;;-0.46;54.33;100931.19;5021583;27;98860;-74
2022/02/25 01:55:22;;;;;;;1999.90;999.90;;;;;;;-0.44;54.28;100927.88;5024228;27;97031;-72
2022/02/25 01:57:49;;;;;;;1999.90;999.90;;;;;;;-0.45;53.91;100931.31;5019713;28;99377;-75
2022/02/25 02:00:20;;;;;;;1999.90;999.90;;;;;;;-0.46;54.43;100931.19;5024057;28;99285;-75
2022/02/25 02:02:49;;;;;;;1999.90;999.90;;;;;;;-0.50;54.32;100927.47;5022118;28;96877;-72
2022/02/25 02:05:17;;;;;;;1999.90;999.90;;;;;;;-0.50;54.36;100935.31;5022196;28;97775;-74
2022/02/25 02:07:45;;;;;;;1999.90;999.90;;;;;;;-0.46;54.03;100929.50;5020239;28;99630;-72
2022/02/25 02:10:14;;;;;;;1999.90;999.90;;;;;;;-0.45;53.54;100935.63;5022705;28;99406;-71
2022/02/25 02:12:42;;;;;;;1999.90;999.90;;;;;;;-0.46;53.66;100942.56;5024553;27;97014;-72
2022/02/25 02:15:10;;;;;;;1999.90;999.90;;;;;;;-0.49;53.74;100934.53;5024282;27;96991;-73
2022/02/25 02:17:39;;;;;;;1999.90;999.90;;;;;;;-0.51;53.66;100954.41;5019804;28;99100;-73
2022/02/25 02:20:08;;;;;;;1999.90;999.90;;;;;;;-0.54;53.78;100951.63;5023933;27;98608;-72
2022/02/25 02:22:37;;;;;;;1999.90;999.90;;;;;;;-0.52;53.71;100941.25;5021508;27;98499;-70
2022/02/25 02:25:06;;;;;;;1999.90;999.90;;;;;;;-0.55;53.82;100955.00;5022900;28;96878;-70
2022/02/25 02:30:20;;;;;;;1999.90;999.90;;;;;;;-0.27;52.62;100948.22;5024655;28;97771;-69
2022/02/25 02:32:48;;;;;;;1999.90;999.90;;;;;;;-0.45;53.54;100954.84;5024051;27;97419;-71
2022/02/25 02:35:16;;;;;;;1999.90;999.90;;;;;;;-0.47;53.20;100958.16;5026536;28;97336;-72
2022/02/25 02:37:45;;;;;;;1999.90;999.90;;;;;;;-0.44;53.33;100953.13;5025619;27;99045;-72
2022/02/25 02:40:12;;;;;;;1999.90;999.90;;;;;;;-0.49;53.46;100959.75;5026510;28;97582;-71
2022/02/25 02:42:40;;;;;;;1999.90;999.90;;;;;;;-0.50;53.39;100957.94;5023093;27;96844;-74
2022/02/25 02:45:09;;;;;;;1999.90;999.90;;;;;;;-0.54;53.08;100958.53;5041447;27;96900;-70
2022/02/25 02:47:36;;;;;;;1999.90;999.90;;;;;;;-0.51;53.44;100966.56;5021825;28;99701;-73
2022/02/25 02:50:05;;;;;;;1999.90;999.90;;;;;;;-0.53;53.42;100974.31;5024792;28;97602;-71
2022/02/25 02:52:33;;;;;;;1999.90;999.90;;;;;;;-0.55;53.37;100972.38;5023287;27;96523;-71
2022/02/25 02:55:02;;;;;;;1999.90;999.90;;;;;;;-0.54;53.20;100979.44;5025806;28;97833;-70
2022/02/25 02:57:30;;;;;;;1999.90;999.90;;;;;;;-0.56;53.01;100987.19;5040184;27;99507;-70
2022/02/25 02:59:57;;;;;;;1999.90;999.90;;;;;;;-0.55;52.88;100986.38;5021250;28;99973;-72
2022/02/25 03:05:02;;;;;;;1999.90;999.90;;;;;;;-0.49;52.73;100988.50;5020689;27;98292;-70
2022/02/25 03:07:30;;;;;;;1999.90;999.90;;;;;;;-0.53;52.84;100992.59;5022560;28;98676;-71
2022/02/25 03:09:57;;;;;;;1999.90;999.90;;;;;;;-0.54;53.21;100997.75;5002800;28;100295;-72
2022/02/25 03:12:28;;;;;;;1999.90;999.90;;;;;;;-0.56;52.92;100997.63;5004122;28;97020;-71
2022/02/25 03:14:55;;;;;;;1999.90;999.90;;;;;;;-0.56;53.00;101005.47;5022254;28;97222;-69
2022/02/25 03:17:24;;;;;;;1999.90;999.90;;;;;;;-0.54;53.18;101010.81;5022079;28;99385;-73
2022/02/25 03:19:51;;;;;;;1999.90;999.90;;;;;;;-0.53;52.91;101004.75;5020276;28;98734;-75
2022/02/25 03:22:20;;;;;;;1999.90;999.90;;;;;;;-0.54;53.13;101013.41;5037448;27;98229;-71
2022/02/25 03:24:57;;;;;;;1999.90;999.90;;;;;;;-0.59;53.49;101017.44;5021440;28;97845;-72
2022/02/25 03:27:27;;;;;;;1999.90;999.90;;;;;;;-0.61;53.08;101021.66;5021207;27;98593;-72
2022/02/25 03:29:54;;;;;;;1999.90;999.90;;;;;;;-0.62;52.94;101028.56;5022358;28;97529;-70
2022/02/25 03:32:24;;;;;;;1999.90;999.90;;;;;;;-0.61;52.91;101030.38;5022701;28;96828;-71
2022/02/25 03:34:52;;;;;;;1999.90;999.90;;;;;;;-0.53;52.85;101037.03;5021012;28;96988;-71
2022/02/25 03:37:20;;;;;;;1999.90;999.90;;;;;;;-0.51;52.60;101038.06;5023776;28;98745;-72
2022/02/25 03:39:48;;;;;;;1999.90;999.90;;;;;;;-0.49;52.32;101041.69;5019926;28;96847;-71
2022/02/25 03:42:18;;;;;;;1999.90;999.90;;;;;;;-0.52;52.70;101041.44;5023380;28;96836;-73
2022/02/25 03:44:47;;;;;;;1999.90;999.90;;;;;;;-0.52;52.38;101053.63;5022749;27;97985;-72
2022/02/25 03:47:15;;;;;;;1999.90;999.90;;;;;;;-0.57;52.29;101050.69;5022205;27;97767;-74
2022/02/25 03:49:43;;;;;;;1999.90;999.90;;;;;;;-0.61;52.54;101051.28;5020294;28;99090;-75
2022/02/25 03:52:11;;;;;;;1999.90;999.90;;;;;;;-0.62;52.77;101044.25;5022006;28;96761;-74
2022/02/25 03:54:38;;;;;;;1999.90;999.90;;;;;;;-0.64;52.54;101058.91;5019836;27;97040;-72
2022/02/25 03:57:06;;;;;;;1999.90;999.90;;;;;;;-0.63;52.75;101075.50;5021383;28;98002;-75
2022/02/25 03:59:34;;;;;;;1999.90;999.90;;;;;;;-0.69;52.55;101062.91;5021270;27;98877;-70
2022/02/25 04:02:03;;;;;;;1999.90;999.90;;;;;;;-0.68;52.43;101071.66;5021340;27;99016;-70
2022/02/25 04:04:31;;;;;;;1999.90;999.90;;;;;;;-0.70;52.70;101073.25;5015248;28;97825;-72
2022/02/25 04:06:59;;;;;;;1999.90;999.90;;;;;;;-0.73;52.35;101075.63;5014137;27;99266;-69
2022/02/25 04:09:27;;;;;;;1999.90;999.90;;;;;;;-0.75;52.53;101070.31;5013904;28;99764;-73
2022/02/25 04:11:55;;;;;;;1999.90;999.90;;;;;;;-0.76;52.40;101080.66;5014420;27;97961;-74
2022/02/25 04:14:23;;;;;;;1999.90;999.90;;;;;;;-0.82;52.37;101075.91;5020202;28;97514;-71
2022/02/25 04:16:52;;;;;;;1999.90;999.90;;;;;;;-0.86;52.84;101087.84;5022892;28;97670;-73
2022/02/25 04:19:21;;;;;;;1999.90;999.90;;;;;;;-0.88;52.80;101092.03;5022830;28;97182;-71
2022/02/25 04:21:49;;;;;;;1999.90;999.90;;;;;;;-0.88;52.84;101080.69;5019685;28;98508;-70
2022/02/25 04:24:17;;;;;;;1999.90;999.90;;;;;;;-0.86;52.26;101080.00;5021782;27;97563;-73
2022/02/25 04:26:45;;;;;;;1999.90;999.90;;;;;;;-0.86;52.46;101087.84;5019511;28;98755;-72
2022/02/25 04:29:13;;;;;;;1999.90;999.90;;;;;;;-0.84;52.25;101078.41;5020446;27;99101;-70
2022/02/25 04:31:41;;;;;;;1999.90;999.90;;;;;;;-0.86;52.82;101079.09;5022912;27;97869;-70
2022/02/25 04:34:08;;;;;;;1999.90;999.90;;;;;;;-0.82;52.64;101086.34;5023108;28;98371;-71
2022/02/25 04:36:38;;;;;;;1999.90;999.90;;;;;;;-0.86;52.49;101084.31;5022782;27;98810;-70
2022/02/25 04:39:07;;;;;;;1999.90;999.90;;;;;;;-0.85;52.83;101075.69;5027245;27;100481;-73
2022/02/25 04:41:36;;;;;;;1999.90;999.90;;;;;;;-0.86;52.52;101087.84;5022380;28;98327;-71
2022/02/25 04:44:06;;;;;;;1999.90;999.90;;;;;;;-0.86;52.66;101080.00;5022309;28;96962;-71
2022/02/25 04:46:34;;;;;;;1999.90;999.90;;;;;;;-0.86;52.11;101085.22;5018614;28;98615;-70
2022/02/25 04:49:03;;;;;;;1999.90;999.90;;;;;;;-0.88;52.57;101086.81;5020470;28;99111;-72
2022/02/25 04:51:30;;;;;;;1999.90;999.90;;;;;;;-0.88;52.44;101096.34;5021299;27;96881;-71
2022/02/25 04:53:59;;;;;;;1999.90;999.90;;;;;;;-0.88;52.40;101104.19;5021912;28;97803;-69
2022/02/25 04:56:27;;;;;;;1999.90;999.90;;;;;;;-0.90;52.50;101093.63;5019445;27;97591;-72
2022/02/25 04:58:55;;;;;;;1999.90;999.90;;;;;;;-0.91;52.08;101101.38;5022497;28;98738;-75
2022/02/25 05:01:23;;;;;;;1999.90;999.90;;;;;;;-0.89;52.39;101102.41;5022167;27;97563;-70
2022/02/25 05:03:51;;;;;;;1999.90;999.90;;;;;;;-0.93;52.30;101102.97;5022168;27;97202;-71
2022/02/25 05:06:18;;;;;;;1999.90;999.90;;;;;;;-0.96;52.43;101102.75;5021629;27;97700;-71
2022/02/25 05:08:46;;;;;;;1999.90;999.90;;;;;;;-0.98;52.31;101109.56;5023940;27;98014;-73
2022/02/25 05:11:17;;;;;;;1999.90;999.90;;;;;;;-0.99;52.04;101112.97;5024936;27;96922;-72
2022/02/25 05:13:45;;;;;;;1999.90;999.90;;;;;;;-0.98;52.43;101104.34;5026981;28;97724;-72
2022/02/25 05:21:48;;;;;;;1999.90;999.90;;;;;;;-1.07;52.49;101111.53;5025225;28;97792;-71
2022/02/25 05:24:16;;;;;;;1999.90;999.90;;;;;;;-1.10;52.59;101116.50;5023263;27;97953;-71
2022/02/25 05:26:45;;;;;;;1999.90;999.90;;;;;;;-1.08;52.43;101117.53;5022649;28;98879;-72
2022/02/25 05:29:13;;;;;;;1999.90;999.90;;;;;;;-1.08;52.00;101122.75;5023627;27;100707;-72
2022/02/25 05:31:41;;;;;;;1999.90;999.90;;;;;;;-1.07;52.14;101122.84;5017867;27;98504;-71
2022/02/25 05:34:08;;;;;;;1999.90;999.90;;;;;;;-1.07;51.87;101138.50;5018420;28;98930;-71
2022/02/25 05:36:36;;;;;;;1999.90;999.90;;;;;;;-1.06;52.35;101131.59;5017256;28;97991;-71
2022/02/25 05:39:04;;;;;;;1999.90;999.90;;;;;;;-1.04;51.91;101141.38;5018321;28;100787;-71
2022/02/25 05:41:31;;;;;;;1999.90;999.90;;;;;;;-1.01;52.02;101145.88;5025279;28;97707;-71
2022/02/25 05:44:01;;;;;;;1999.90;999.90;;;;;;;-1.00;52.01;101146.03;5025078;27;97167;-72
2022/02/25 05:46:29;;;;;;;1999.90;999.90;;;;;;;-1.01;52.41;101144.19;5021490;27;98309;-71
2022/02/25 05:48:57;;;;;;;1999.90;999.90;;;;;;;-1.01;51.89;101145.88;5016855;28;97847;-74
2022/02/25 05:51:25;;;;;;;1999.90;999.90;;;;;;;-1.01;51.60;101136.34;5017644;28;98232;-75
2022/02/25 05:53:54;;;;;;;1999.90;999.90;;;;;;;-0.98;51.94;101167.94;5024700;27;97066;-72
2022/02/25 05:56:21;;;;;;;1999.90;999.90;;;;;;;-0.97;52.08;101154.06;5025812;28;97373;-71
2022/02/25 05:58:49;;;;;;;1999.90;999.90;;;;;;;-0.94;52.05;101154.28;5022166;28;98723;-71
2022/02/25 06:01:18;;;;;;;1999.90;999.90;;;;;;;-0.93;52.03;101165.66;5021316;28;97551;-71
2022/02/25 06:03:46;;;;;;;1999.90;999.90;;;;;;;-0.92;51.78;101167.44;5017036;28;97760;-73
2022/02/25 06:06:14;;;;;;;1999.90;999.90;;;;;;;-0.90;51.68;101166.78;5021403;28;98905;-70
2022/02/25 06:08:42;;;;;;;1999.90;999.90;;;;;;;-0.83;51.54;101173.38;5021670;27;99231;-71
2022/02/25 06:11:10;;;;;;;1999.90;999.90;;;;;;;-0.79;51.71;101169.28;5020715;27;97602;-72
2022/02/25 06:13:38;;;;;;;1999.90;999.90;;;;;;;-0.74;51.39;101168.81;5023555;28;97815;-70
2022/02/25 06:16:06;;;;;;;1999.90;999.90;;;;;;;-0.69;51.57;101164.81;5018799;27;98058;-72
2022/02/25 06:18:38;;;;;;;1999.90;999.90;;;;;;;-0.65;51.16;101152.88;5039416;27;100509;-71
2022/02/25 06:21:06;;;;;;;1999.90;999.90;;;;;;;-0.63;51.26;101162.66;5025177;28;97000;-73
2022/02/25 06:23:33;;;;;;;1999.90;999.90;;;;;;;-0.60;51.50;101155.03;5025887;27;97318;-71
2022/02/25 06:26:02;;;;;;;1999.90;999.90;;;;;;;-0.55;51.51;101157.94;5026533;28;100677;-71
2022/02/25 06:28:31;;;;;;;1999.90;999.90;;;;;;;-0.55;51.60;101166.69;5026203;27;97240;-72
2022/02/25 06:30:58;;;;;;;1999.90;999.90;;;;;;;-0.52;51.16;101164.28;5043582;27;97106;-69
2022/02/25 06:33:26;;;;;;;1999.90;999.90;;;;;;;-0.53;51.31;101153.72;5028071;28;96780;-72
2022/02/25 06:35:55;;;;;;;1999.90;999.90;;;;;;;-0.53;51.20;101157.25;5029646;28;99278;-72
2022/02/25 06:38:25;;;;;;;1999.90;999.90;;;;;;;-0.51;51.27;101153.06;5029948;28;97516;-72
2022/02/25 06:40:53;;;;;;;1999.90;999.90;;;;;;;-0.47;51.00;101155.09;5029633;28;97313;-71
2022/02/25 06:43:21;;;;;;;1999.90;999.90;;;;;;;-0.45;50.87;101156.13;5028098;27;97362;-72
2022/02/25 06:45:48;;;;;;;1999.90;999.90;;;;;;;-0.40;50.96;101161.66;5029433;27;98714;-72
2022/02/25 06:48:16;;;;;;;1999.90;999.90;;;;;;;-0.38;51.20;101160.97;5027906;28;97600;-71
2022/02/25 06:50:44;;;;;;;1999.90;999.90;;;;;;;-0.39;51.03;101163.47;5027267;28;97044;-73
2022/02/25 06:53:13;;;;;;;1999.90;999.90;;;;;;;-0.37;50.71;101161.84;5028889;27;97570;-71
2022/02/25 06:55:42;;;;;;;1999.90;999.90;;;;;;;-0.37;51.01;101164.47;5025981;28;100653;-69
2022/02/25 06:58:11;;;;;;;1999.90;999.90;;;;;;;-0.38;51.00;101168.81;5028172;27;99209;-72
2022/02/25 07:00:40;;;;;;;1999.90;999.90;;;;;;;-0.40;50.67;101162.56;5027502;28;97451;-73
2022/02/25 07:03:08;;;;;;;1999.90;999.90;;;;;;;-0.38;50.61;101167.91;5028334;27;97779;-73
2022/02/25 07:05:39;;;;;;;1999.90;999.90;;;;;;;-0.41;50.35;101181.66;5026958;28;97614;-72
2022/02/25 07:08:07;;;;;;;1999.90;999.90;;;;;;;-0.39;50.84;101172.22;5026419;28;99422;-71
2022/02/25 07:10:37;;;;;;;1999.90;999.90;;;;;;;-0.37;50.74;101170.63;5027739;28;96778;-73
2022/02/25 07:13:06;;;;;;;1999.90;999.90;;;;;;;-0.34;50.50;101178.69;5025823;28;96848;-72
2022/02/25 07:15:34;;;;;;;1999.90;999.90;;;;;;;-0.34;50.20;101178.69;5040736;27;96978;-72
2022/02/25 07:18:02;;;;;;;1999.90;999.90;;;;;;;-0.33;50.46;101180.50;5027326;28;97556;-72
2022/02/25 07:20:30;;;;;;;1999.90;999.90;;;;;;;-0.29;50.69;101194.69;5027005;27;97050;-73
2022/02/25 07:22:59;;;;;;;1999.90;999.90;;;;;;;-0.28;50.71;101186.06;5026869;27;96988;-71
2022/02/25 07:25:27;;;;;;;1999.90;999.90;;;;;;;-0.24;50.65;101195.91;5025126;27;97771;-72
2022/02/25 07:27:57;;;;;;;1999.90;999.90;;;;;;;-0.21;50.59;101211.84;5009266;28;100199;-71
2022/02/25 07:30:26;;;;;;;1999.90;999.90;;;;;;;-0.20;50.55;101201.47;5025443;27;96907;-73
2022/02/25 07:32:54;;;;;;;1999.90;999.90;;;;;;;-0.18;50.43;101206.81;5027484;27;97111;-72
2022/02/25 07:35:22;;;;;;;1999.90;999.90;;;;;;;-0.22;50.58;101218.78;5026346;27;97607;-70
2022/02/25 07:37:51;;;;;;;1999.90;999.90;;;;;;;-0.21;50.22;101212.72;5025889;28;97043;-72
2022/02/25 07:40:19;;;;;;;1999.90;999.90;;;;;;;-0.20;50.62;101224.09;5026277;28;96726;-72
2022/02/25 07:42:46;;;;;;;1999.90;999.90;;;;;;;-0.12;50.02;101222.94;5027129;28;96947;-70
2022/02/25 07:45:15;;;;;;;1999.90;999.90;;;;;;;-0.12;50.21;101223.84;5027014;28;97596;-72
2022/02/25 07:47:43;;;;;;;1999.90;999.90;;;;;;;0.13;49.69;101244.78;5022434;28;98509;-72
2022/02/25 07:50:13;;;;;;;1999.90;999.90;;;;;;;0.04;49.63;101239.84;5024425;28;97024;-73
2022/02/25 07:52:42;;;;;;;1999.90;999.90;;;;;;;0.05;49.57;101239.00;5026194;27;96858;-73
2022/02/25 07:55:10;;;;;;;1999.90;999.90;;;;;;;0.06;49.75;101239.94;5024244;28;99715;-73
2022/02/25 07:57:37;;;;;;;1999.90;999.90;;;;;;;0.08;49.54;101243.56;5025505;28;100206;-73
2022/02/25 08:00:24;;;;;;;1999.90;999.90;;;;;;;0.10;49.71;101236.75;5025883;28;96956;-74
2022/02/25 08:02:52;;;;;;;1999.90;999.90;;;;;;;0.13;49.54;101244.78;5024853;28;97180;-71
2022/02/25 08:05:21;;;;;;;1999.90;999.90;;;;;;;0.17;49.70;101242.47;5025040;28;98887;-71
2022/02/25 08:07:49;;;;;;;1999.90;999.90;;;;;;;0.25;49.42;101250.03;5026082;28;99754;-70
2022/02/25 08:10:17;;;;;;;1999.90;999.90;;;;;;;0.29;49.54;101244.16;5026378;27;96975;-73
2022/02/25 08:12:45;;;;;;;1999.90;999.90;;;;;;;0.34;49.40;101245.41;5026227;28;97529;-70
2022/02/25 08:15:14;;;;;;;1999.90;999.90;;;;;;;0.38;49.47;101250.94;5025512;27;98017;-72
2022/02/25 08:17:43;;;;;;;1999.90;999.90;;;;;;;0.43;48.74;101252.16;5024060;28;99284;-71
2022/02/25 08:20:12;;;;;;;1999.90;999.90;;;;;;;0.47;49.17;101250.66;5025429;28;96748;-71
2022/02/25 08:22:40;;;;;;;1999.90;999.90;;;;;;;0.58;49.11;101247.06;5024411;28;98776;-71
2022/02/25 08:25:08;;;;;;;1999.90;999.90;;;;;;;0.55;49.34;101267.81;5025526;28;98541;-73
2022/02/25 08:27:36;;;;;;;1999.90;999.90;;;;;;;0.60;48.94;101250.72;5024466;28;97556;-72
2022/02/25 08:30:05;;;;;;;1999.90;999.90;;;;;;;0.64;49.24;101261.50;5025071;28;97506;-70
2022/02/25 08:32:34;;;;;;;1999.90;999.90;;;;;;;0.69;49.27;101254.88;5023839;27;97192;-72
2022/02/25 08:35:07;;;;;;;1999.90;999.90;;;;;;;0.75;49.14;101285.81;5025998;28;98734;-73
2022/02/25 08:37:35;;;;;;;1999.90;999.90;;;;;;;0.78;49.32;101267.66;5023809;28;97709;-73
2022/02/25 08:40:04;;;;;;;1999.90;999.90;;;;;;;0.83;48.78;101272.41;5023832;28;96899;-72
2022/02/25 08:42:32;;;;;;;1999.90;999.90;;;;;;;0.87;49.00;101276.16;5026532;27;96856;-71
2022/02/25 08:45:00;;;;;;;1999.90;999.90;;;;;;;0.89;48.76;101270.22;5030679;27;97849;-71
2022/02/25 08:47:27;;;;;;;1999.90;999.90;;;;;;;0.93;48.68;101276.56;5028515;28;97525;-75
2022/02/25 08:49:55;;;;;;;1999.90;999.90;;;;;;;0.92;48.64;101272.16;5028963;28;99180;-73
2022/02/25 08:52:24;;;;;;;1999.90;999.90;;;;;;;0.92;48.74;101290.50;5027817;28;97198;-73
2022/02/25 08:54:52;;;;;;;1999.90;999.90;;;;;;;0.99;48.73;101285.78;5029093;28;97106;-72
2022/02/25 08:57:20;;;;;;;1999.90;999.90;;;;;;;1.01;48.17;101265.78;5028760;28;100534;-73
2022/02/25 08:59:48;;;;;;;1999.90;999.90;;;;;;;1.04;48.93;101270.34;5029996;28;97052;-72
2022/02/25 09:02:16;;;;;;;1999.90;999.90;;;;;;;1.08;48.47;101278.53;5029596;27;96983;-74
2022/02/25 09:04:43;;;;;;;1999.90;999.90;;;;;;;1.15;48.16;101274.59;5029712;27;98767;-74
2022/02/25 09:07:11;;;;;;;1999.90;999.90;;;;;;;1.15;47.84;101290.31;5030281;28;99513;-70
2022/02/25 09:09:41;;;;;;;1999.90;999.90;;;;;;;1.17;48.34;101270.34;5029594;28;97289;-70
2022/02/25 09:12:10;;;;;;;1999.90;999.90;;;;;;;1.20;47.85;101268.84;5028323;28;96779;-71
2022/02/25 09:14:37;;;;;;;1999.90;999.90;;;;;;;1.26;47.36;101273.56;5026283;27;97705;-71
2022/02/25 09:17:07;;;;;;;1999.90;999.90;;;;;;;1.32;47.76;101284.47;5026947;28;97396;-73
2022/02/25 09:19:35;;;;;;;1999.90;999.90;;;;;;;1.35;47.78;101266.31;5029222;28;96831;-73
2022/02/25 09:22:04;;;;;;;1999.90;999.90;;;;;;;1.37;47.62;101272.56;5029709;28;97665;-72
2022/02/25 09:24:32;;;;;;;1999.90;999.90;;;;;;;1.44;47.67;101284.34;5028376;28;97706;-72
2022/02/25 09:27:01;;;;;;;1999.90;999.90;;;;;;;1.46;46.50;101295.84;5011215;28;100300;-71
2022/02/25 09:29:29;;;;;;;1999.90;999.90;;;;;;;1.50;47.39;101293.56;5028218;28;96907;-71
2022/02/25 09:31:57;;;;;;;1999.90;999.90;;;;;;;1.53;46.90;101309.47;5028401;28;97093;-72
2022/02/25 09:34:25;;;;;;;1999.90;999.90;;;;;;;1.58;46.94;101305.44;5028986;27;96884;-72
2022/02/25 09:36:53;;;;;;;1999.90;999.90;;;;;;;1.62;47.24;101294.34;5027255;28;99517;-71
2022/02/25 09:39:21;;;;;;;1999.90;999.90;;;;;;;1.64;46.40;101299.66;5027852;28;96812;-73
2022/02/25 09:41:51;;;;;;;1999.90;999.90;;;;;;;1.61;46.14;101309.97;5028227;27;96847;-73
2022/02/25 09:44:23;;;;;;;1999.90;999.90;;;;;;;1.64;47.09;101307.53;5028512;27;99882;-73
2022/02/25 09:46:52;;;;;;;1999.90;999.90;;;;;;;1.63;46.30;101364.38;5025551;27;100038;-73
2022/02/25 09:49:20;;;;;;;1999.90;999.90;;;;;;;1.62;46.79;101303.91;5026736;27;97035;-72
2022/02/25 09:51:48;;;;;;;1999.90;999.90;;;;;;;1.63;46.99;101345.09;5027688;27;96915;-71
2022/02/25 09:54:18;;;;;;;1999.90;999.90;;;;;;;1.65;46.70;101310.25;5027281;27;98753;-72
2022/02/25 09:56:47;;;;;;;1999.90;999.90;;;;;;;1.59;46.49;101317.75;5027374;27;98522;-72
2022/02/25 09:59:15;;;;;;;1999.90;999.90;;;;;;;1.58;46.77;101342.16;5028673;28;96999;-72
2022/02/25 10:01:45;;;;;;;1999.90;999.90;;;;;;;1.58;46.58;101320.28;5028924;27;96751;-75
2022/02/25 10:04:15;;;;;;;1999.90;999.90;;;;;;;1.62;46.83;101319.66;5010494;28;100366;-76
2022/02/25 10:06:44;;;;;;;1999.90;999.90;;;;;;;1.66;46.21;101335.69;5027768;28;97080;-72
2022/02/25 10:09:25;;;;;;;1999.90;999.90;;;;;;;1.66;46.45;101313.78;5027412;28;97978;-73
2022/02/25 10:12:05;;;;;;;1999.90;999.90;;;;;;;1.65;45.17;101343.47;5027214;28;96786;-70
2022/02/25 10:14:34;;;;;;;1999.90;999.90;;;;;;;1.64;46.39;101313.69;5043027;27;97040;-71
2022/02/25 10:17:09;;;;;;;1999.90;999.90;;;;;;;1.69;45.92;101304.41;5026709;28;99113;-73
2022/02/25 10:19:38;;;;;;;1999.90;999.90;;;;;;;1.70;46.25;101316.72;5029903;28;98870;-73
2022/02/25 10:22:18;;;;;;;1999.90;999.90;;;;;;;1.68;45.53;101325.31;5031889;28;97197;-74
2022/02/25 10:24:47;;;;;;;1999.90;999.90;;;;;;;1.69;46.22;101299.16;5047152;27;97530;-70
2022/02/25 10:27:27;;;;;;;1999.90;999.90;;;;;;;1.69;45.25;101328.03;5030456;28;99140;-72
2022/02/25 10:30:00;;;;;;;1999.90;999.90;;;;;;;1.73;45.79;101293.31;5031292;28;96751;-74
2022/02/25 10:32:34;;;;;;;1999.90;999.90;;;;;;;1.71;46.33;101291.38;5028917;27;97796;-72
2022/02/25 10:35:21;;;;;;;1999.90;999.90;;;;;;;1.73;44.53;101290.69;5028272;28;100458;-70
2022/02/25 10:38:03;;;;;;;1999.90;999.90;;;;;;;1.76;45.16;101282.13;5029374;27;98163;-72
2022/02/25 10:40:33;;;;;;;1999.90;999.90;;;;;;;1.81;46.02;101302.59;5029603;27;96913;-72
2022/02/25 10:43:05;;;;;;;1999.90;999.90;;;;;;;1.90;45.99;101290.06;5025320;28;97400;-72
2022/02/25 10:45:36;;;;;;;1999.90;999.90;;;;;;;1.91;46.52;101286.63;5027743;28;98813;-71
2022/02/25 10:48:11;;;;;;;1999.90;999.90;;;;;;;2.02;46.21;101282.94;5025965;28;99760;-70
2022/02/25 10:50:45;;;;;;;1999.90;999.90;;;;;;;2.12;44.99;101280.16;5042799;27;98006;-73
2022/02/25 10:53:13;;;;;;;1999.90;999.90;;;;;;;2.22;46.03;101289.47;5026133;27;97306;-74
2022/02/25 10:55:41;;;;;;;1999.90;999.90;;;;;;;2.25;45.26;101294.94;5026177;28;99578;-71
2022/02/25 10:58:09;;;;;;;1999.90;999.90;;;;;;;2.30;45.91;101284.72;5027126;27;97094;-74
2022/02/25 11:00:39;;;;;;;1999.90;999.90;;;;;;;2.30;45.12;101283.00;5026627;28;97379;-73
2022/02/25 11:03:13;;;;;;;1999.90;999.90;;;;;;;2.30;45.30;101293.50;5027410;27;96794;-74
2022/02/25 11:05:42;;;;;;;1999.90;999.90;;;;;;;2.30;45.33;101310.97;5025431;28;97566;-74
2022/02/25 11:08:10;;;;;;;1999.90;999.90;;;;;;;2.26;43.95;101306.31;5027381;28;98728;-72